LIEELIBA

Guest
Details From LIEE - Cagliari Elmas
To LIBA - AMENDOLA
Flight Number -
Tags generated
Created
Modified
Stats Distance 343 nm / 634 km
Max Altitude 21,800 ft / 6,645 m
Waypoints 8
Social Downloads 0
Likes 0
Share VATSIM

Download

Looking for another format? Having issues loading an existing format? Contact us
Advertisement - Login to hide

Notes

Basic altitude profile: - Ascent Rate: 2500ft/min - Ascent Speed: 250kts - Cruise Altitude: 35000ft - Cruise Speed: 420kts - Descent Rate: 1500ft/min - Descent Speed: 250kts Options: - Use NATs: yes - Use PACOTS: yes - Use low airways: yes - Use high airways: no

Route

LIEE BELOK M159 SOR LIBA

ID Type Via Altitude Latitude Longitude Leg Dist Tot Dist Heading (true) Name
O LIEE APT - 0 ft / 0 m 39.25147˚ 9.05429˚ - 0 nm - Cagliari Elmas
BELOK FIX - 21,800 ft / 6,645 m 39.38972˚ 10.36083˚ 61 nm 61 nm 82° / 83° -
RONAB FIX M159 (AWY-LO) 19,500 ft / 5,944 m 39.86972˚ 11.89111˚ 76 nm 137 nm 67° / 68° -
BEROL FIX M159 (AWY-LO) 19,500 ft / 5,944 m 40.20472˚ 13.01306˚ 55 nm 193 nm 68° / 69° -
TAGEL FIX M159 (AWY-LO) 19,500 ft / 5,944 m 40.29778˚ 13.31111˚ 14 nm 207 nm 68° / 68° -
EDOPA FIX M159 (AWY-LO) 19,500 ft / 5,944 m 40.42250˚ 13.76528˚ 22 nm 229 nm 70° / 70° -
SOR VOR M159 (AWY-LO) 17,100 ft / 5,212 m 40.58249˚ 14.33527˚ 27 nm 257 nm 70° / 70° SORRENTO VOR-DME
O LIBA APT - 0 ft / 0 m 41.53956˚ 15.71387˚ 84 nm 342 nm 47° / 48° AMENDOLA

Altitude Profile

Advertisement - Login to hide

Weather


0- 5 10 15 20 25 30 35+ Temperature / ° C

Clouds and Precipitation
Forecast for 2017-12-15 18:00 UTC. Updated an hour ago

Ground ~20,000 ft ~40,000 ft Winds

LIEE

Details ICAO LIEE (CAG)
Name Cagliari Elmas
Region Italy
Timezone Europe/Rome (UTC+1.0)
Stats Elevation 13 ft / 4 m (AMSL)
Location 39.251475° 9.054291°
Runways 1
Magnetic Variation 2.298° E

METAR

LIEE 151420Z 28010KT 9999 -RA SCT025 SCT045 16/12 Q1003

Decode

TAF

TAF LIEE 151100Z 1512/1612 23015KT 9999 BKN030 TEMPO 1512/1518 4000 SHRA BECMG 1518/1520 32015KT

Decode

Departure Runways

ID Width Length Bearing (true) Bearing (mag) Surface Threshold Offset Overrun Length
14 148 ft / 45 m 9,157 ft / 2,791 m 138.08° 135.78° Asphalt 0 ft / 0 m 187 ft / 57 m
32 148 ft / 45 m 9,157 ft / 2,791 m 318.09° 315.79° Asphalt 0 ft / 0 m 0 ft / 0 m

LIBA

Details ICAO LIBA
Name AMENDOLA
Region Italy
Timezone Europe/Rome (UTC+1.0)
Stats Elevation 183 ft / 56 m (AMSL)
Location 41.539558° 15.713874°
Runways 1
Magnetic Variation 3.592° E

METAR

LIBA 151355Z 18007KT 9999 BKN040 15/12 Q1003 RMK BKN VIS MIN 9999 WIND THR11 18009KT WIND THR29 /////KT BLU

Decode

TAF

Not found

Destination Runways

ID Width Length Bearing (true) Bearing (mag) Surface Threshold Offset Overrun Length
11 144 ft / 44 m 8,712 ft / 2,655 m 113.80° 110.21° Asphalt 0 ft / 0 m 194 ft / 59 m
29 144 ft / 44 m 8,712 ft / 2,655 m 293.82° 290.23° Asphalt 0 ft / 0 m 198 ft / 60 m